Time;durP1;ratioP1;P1;durP2;ratioP2;P2;SDS_P1;SDS_P2;PMS_P1;PMS_P2;Temp;Humidity;BMP_temperature;BMP_pressure;BME280_temperature;BME280_humidity;BME280_pressure;Samples;Min_cycle;Max_cycle;Signal;HPM_P1;HPM_P2
2023/05/07 00:01:42;;;;;;;1.70;1.20;;;;;;;13.51;100.00;96106.13;4993468;28;20199;-83
2023/05/07 00:04:09;;;;;;;4.97;1.50;;;;;;;13.45;100.00;96109.00;4994580;28;20227;-83
2023/05/07 00:06:36;;;;;;;1.60;1.13;;;;;;;13.37;100.00;96106.75;4990577;28;20240;-83
2023/05/07 00:09:05;;;;;;;3.60;1.40;;;;;;;13.34;100.00;96102.69;4986223;28;20216;-83
2023/05/07 00:11:32;;;;;;;3.07;1.43;;;;;;;13.31;100.00;96095.03;4987417;28;20295;-83
2023/05/07 00:13:59;;;;;;;1.50;1.20;;;;;;;13.23;100.00;96100.91;4980714;28;20208;-83
2023/05/07 00:16:27;;;;;;;2.70;1.20;;;;;;;13.23;100.00;96101.72;4977564;28;20219;-83
2023/05/07 00:18:54;;;;;;;5.97;1.20;;;;;;;13.22;100.00;96105.50;4982405;28;20220;-83
2023/05/07 00:21:21;;;;;;;2.33;1.40;;;;;;;13.19;100.00;96103.28;4978659;28;20204;-83
2023/05/07 00:23:48;;;;;;;1.37;1.27;;;;;;;13.20;100.00;96106.81;4986700;28;20223;-83
2023/05/07 00:26:17;;;;;;;2.60;1.33;;;;;;;13.15;100.00;96115.72;4986792;28;20204;-83
2023/05/07 00:28:45;;;;;;;5.93;1.50;;;;;;;13.13;100.00;96107.03;4987844;28;20196;-83
2023/05/07 00:31:12;;;;;;;1.40;1.30;;;;;;;13.05;100.00;96104.72;4983294;28;20200;-83
2023/05/07 00:33:39;;;;;;;2.83;1.27;;;;;;;13.04;100.00;96086.81;4981783;28;20200;-83
2023/05/07 00:36:07;;;;;;;4.13;1.03;;;;;;;13.06;100.00;96098.22;4983744;28;20208;-82
2023/05/07 00:38:34;;;;;;;2.97;1.57;;;;;;;13.07;100.00;96097.16;4985687;28;20219;-83
2023/05/07 00:41:02;;;;;;;3.67;1.60;;;;;;;13.10;100.00;96098.56;5005628;28;20200;-83
2023/05/07 00:43:30;;;;;;;3.83;1.40;;;;;;;13.12;100.00;96096.41;4980981;28;20223;-83
2023/05/07 00:45:57;;;;;;;1.33;1.20;;;;;;;13.18;100.00;96098.16;4989129;28;20219;-83
2023/05/07 00:48:25;;;;;;;3.83;1.30;;;;;;;13.15;100.00;96087.78;4987858;28;20207;-83
2023/05/07 00:50:53;;;;;;;3.07;1.27;;;;;;;13.09;100.00;96099.63;4987589;28;20220;-83
2023/05/07 00:53:20;;;;;;;2.60;1.40;;;;;;;13.06;100.00;96094.69;4980328;28;20197;-83
2023/05/07 00:55:48;;;;;;;3.67;1.60;;;;;;;13.02;100.00;96088.13;4989193;28;20227;-83
2023/05/07 00:58:16;;;;;;;4.73;1.37;;;;;;;12.96;100.00;96083.72;4986921;28;20231;-83
2023/05/07 01:00:45;;;;;;;1.33;1.17;;;;;;;12.98;100.00;96087.00;4984201;28;20205;-83
2023/05/07 01:03:12;;;;;;;1.50;1.40;;;;;;;13.00;100.00;96080.28;4987238;28;20219;-83
2023/05/07 01:05:39;;;;;;;3.47;1.30;;;;;;;12.94;100.00;96075.00;4994978;28;20247;-83
2023/05/07 01:08:07;;;;;;;2.93;1.40;;;;;;;12.91;100.00;96073.66;4992622;28;20227;-83
2023/05/07 01:10:34;;;;;;;3.50;1.60;;;;;;;12.92;100.00;96079.88;4991037;28;20249;-83
2023/05/07 01:13:02;;;;;;;1.67;1.27;;;;;;;12.87;100.00;96080.63;5006411;28;20227;-83
2023/05/07 01:15:29;;;;;;;3.50;1.30;;;;;;;12.80;100.00;96080.81;4988191;28;20231;-83
2023/05/07 01:17:58;;;;;;;3.10;1.50;;;;;;;12.78;100.00;96077.53;4992686;28;20222;-83
2023/05/07 01:20:32;;;;;;;4.13;1.43;;;;;;;12.80;100.00;96088.94;4984677;28;20271;-83
2023/05/07 01:23:01;;;;;;;2.90;1.63;;;;;;;12.69;100.00;96065.50;5005367;28;20229;-83
2023/05/07 01:25:30;;;;;;;3.00;1.50;;;;;;;12.82;100.00;96073.28;4989158;28;20242;-83
2023/05/07 01:28:01;;;;;;;3.20;1.57;;;;;;;12.76;100.00;96073.47;4988445;28;20219;-83
2023/05/07 01:30:31;;;;;;;6.00;1.50;;;;;;;12.75;100.00;96078.06;4991586;28;20207;-83
2023/05/07 01:33:03;;;;;;;3.80;1.70;;;;;;;12.77;100.00;96080.50;4992821;28;20207;-83
2023/05/07 01:35:37;;;;;;;5.97;1.50;;;;;;;12.78;100.00;96074.81;4993934;28;20269;-83
2023/05/07 01:38:06;;;;;;;4.97;1.60;;;;;;;12.74;100.00;96076.41;4995153;28;20286;-83
2023/05/07 01:40:35;;;;;;;6.00;1.60;;;;;;;12.71;100.00;96076.91;4992195;28;20214;-83
2023/05/07 01:43:03;;;;;;;3.63;1.63;;;;;;;12.68;100.00;96076.56;5010284;28;20255;-83
2023/05/07 01:45:31;;;;;;;2.90;1.60;;;;;;;12.68;100.00;96071.97;4992933;28;20215;-83
2023/05/07 01:47:59;;;;;;;4.10;2.17;;;;;;;12.69;100.00;96072.78;4994202;28;20217;-83
2023/05/07 01:50:27;;;;;;;4.17;1.70;;;;;;;12.65;100.00;96069.78;4991862;28;20203;-83
2023/05/07 01:52:54;;;;;;;3.03;1.60;;;;;;;12.61;100.00;96065.91;4994252;28;20226;-83
2023/05/07 01:55:23;;;;;;;4.17;1.60;;;;;;;12.54;100.00;96070.69;4992513;28;20199;-83
2023/05/07 01:57:50;;;;;;;6.60;1.80;;;;;;;12.58;100.00;96076.44;4993824;28;20214;-83
2023/05/07 02:00:18;;;;;;;4.20;1.80;;;;;;;12.58;100.00;96069.16;4993611;28;20291;-83
2023/05/07 02:02:46;;;;;;;2.13;1.50;;;;;;;12.55;100.00;96069.63;5011818;28;20207;-83
2023/05/07 02:05:31;;;;;;;5.13;1.67;;;;;;;12.55;100.00;96068.81;4997462;28;20262;-83
2023/05/07 02:08:04;;;;;;;5.40;1.93;;;;;;;12.55;100.00;96079.66;4996849;28;20216;-83
2023/05/07 02:10:33;;;;;;;4.03;1.67;;;;;;;12.52;100.00;96078.25;4984463;28;20216;-83
2023/05/07 02:13:01;;;;;;;2.33;1.60;;;;;;;12.46;100.00;96071.94;4988046;28;20200;-83
2023/05/07 02:15:28;;;;;;;3.40;1.57;;;;;;;12.42;100.00;96067.25;4986803;28;20216;-83
2023/05/07 02:18:01;;;;;;;2.37;1.77;;;;;;;12.43;100.00;96064.31;4989804;28;20211;-83
2023/05/07 02:20:28;;;;;;;2.67;1.60;;;;;;;12.43;100.00;96064.31;4979182;28;20200;-83
2023/05/07 02:22:55;;;;;;;7.33;2.63;;;;;;;12.42;100.00;96072.69;5004660;28;20200;-83
2023/05/07 02:25:22;;;;;;;4.27;1.60;;;;;;;12.47;100.00;96072.78;4986818;28;20206;-83
2023/05/07 02:27:51;;;;;;;3.87;1.90;;;;;;;12.45;100.00;96072.19;4989142;28;20204;-83
2023/05/07 02:30:21;;;;;;;6.77;1.53;;;;;;;12.47;100.00;96072.78;4989833;28;20204;-83
2023/05/07 02:32:48;;;;;;;6.13;1.73;;;;;;;12.40;100.00;96074.84;4988469;28;20208;-83
2023/05/07 02:35:15;;;;;;;5.07;1.70;;;;;;;12.33;100.00;96064.19;4989946;28;20203;-83
2023/05/07 02:37:43;;;;;;;6.30;1.80;;;;;;;12.29;100.00;96064.91;4989777;28;20231;-83
2023/05/07 02:40:11;;;;;;;2.53;1.50;;;;;;;12.28;100.00;96071.38;4983698;28;20193;-83
2023/05/07 02:42:38;;;;;;;4.33;1.70;;;;;;;12.20;100.00;96064.50;4989226;28;20212;-83
2023/05/07 02:45:09;;;;;;;6.57;1.60;;;;;;;12.15;100.00;96069.84;4981878;28;20248;-83
2023/05/07 02:47:37;;;;;;;3.77;1.80;;;;;;;12.15;100.00;96072.56;4991005;28;20231;-83
2023/05/07 02:50:06;;;;;;;1.50;1.40;;;;;;;12.21;100.00;96059.91;4991270;28;20192;-83
2023/05/07 02:52:33;;;;;;;3.00;1.60;;;;;;;12.18;100.00;96072.03;4983445;28;20287;-83
2023/05/07 02:55:00;;;;;;;3.93;1.80;;;;;;;12.17;100.00;96080.41;4986103;28;20204;-83
2023/05/07 02:57:27;;;;;;;5.27;1.53;;;;;;;12.19;100.00;96078.28;4988450;28;20210;-83
2023/05/07 02:59:55;;;;;;;4.43;1.50;;;;;;;12.22;100.00;96067.78;4986466;28;20235;-83
2023/05/07 03:02:24;;;;;;;2.00;1.60;;;;;;;12.27;100.00;96072.44;4982081;28;20228;-83
2023/05/07 03:04:52;;;;;;;1.90;1.70;;;;;;;12.29;100.00;96071.16;4983173;28;20224;-83
2023/05/07 03:07:19;;;;;;;7.10;1.70;;;;;;;12.26;100.00;96081.63;4997666;28;20232;-83
2023/05/07 03:09:46;;;;;;;4.67;1.50;;;;;;;12.26;100.00;96074.34;4981789;28;20234;-83
2023/05/07 03:12:14;;;;;;;2.53;1.73;;;;;;;12.24;100.00;96072.97;4988127;28;20220;-83
2023/05/07 03:14:40;;;;;;;6.00;1.60;;;;;;;12.21;100.00;96068.03;4987054;28;20192;-83
2023/05/07 03:17:07;;;;;;;2.73;1.63;;;;;;;12.16;100.00;96065.25;4987523;28;20200;-83
2023/05/07 03:19:36;;;;;;;10.50;1.77;;;;;;;12.19;100.00;96076.41;4986251;28;20205;-83
2023/05/07 03:22:03;;;;;;;5.17;2.00;;;;;;;12.13;100.00;96075.50;4990299;28;20239;-83
2023/05/07 03:24:30;;;;;;;5.60;1.87;;;;;;;12.10;100.00;96078.69;4989466;28;20231;-83
2023/05/07 03:26:57;;;;;;;3.40;1.60;;;;;;;12.06;100.00;96082.97;4983197;28;20208;-83
2023/05/07 03:29:25;;;;;;;3.47;1.80;;;;;;;12.04;100.00;96082.41;4986194;28;20224;-83
2023/05/07 03:31:52;;;;;;;7.97;1.50;;;;;;;12.05;100.00;96078.63;4985636;28;20205;-83
2023/05/07 03:34:21;;;;;;;4.97;2.00;;;;;;;12.06;100.00;96077.56;4982441;28;20211;-83
2023/05/07 03:36:50;;;;;;;3.47;1.87;;;;;;;12.07;100.00;96073.78;4987369;28;20307;-83
2023/05/07 03:39:18;;;;;;;4.00;1.67;;;;;;;12.03;100.00;96075.34;4994068;28;20207;-83
2023/05/07 03:41:45;;;;;;;2.77;1.70;;;;;;;12.07;100.00;96079.22;4986225;28;20212;-83
2023/05/07 03:44:12;;;;;;;3.27;1.90;;;;;;;12.07;100.00;96083.78;4986034;28;20221;-81
2023/05/07 03:46:40;;;;;;;7.07;1.60;;;;;;;12.05;100.00;96086.75;4988192;28;20220;-82
2023/05/07 03:49:08;;;;;;;8.40;1.90;;;;;;;11.97;100.00;96095.28;4987452;28;20204;-81
2023/05/07 03:51:35;;;;;;;3.37;1.80;;;;;;;11.96;100.00;96090.91;4988007;28;20266;-81
2023/05/07 03:54:05;;;;;;;4.30;2.10;;;;;;;11.98;100.00;96091.50;4986500;28;20227;-81
2023/05/07 03:56:34;;;;;;;2.53;1.60;;;;;;;11.93;100.00;96090.56;4990746;28;20255;-81
2023/05/07 03:59:01;;;;;;;3.17;1.70;;;;;;;11.86;100.00;96089.91;4989768;28;20303;-82
2023/05/07 04:01:28;;;;;;;3.30;1.70;;;;;;;11.87;100.00;96091.56;4988397;28;20197;-81
2023/05/07 04:03:56;;;;;;;3.50;1.73;;;;;;;11.88;100.00;96090.50;4987714;28;20236;-81
2023/05/07 04:06:24;;;;;;;5.53;1.90;;;;;;;11.92;100.00;96099.75;4998790;28;20255;-81
2023/05/07 04:08:51;;;;;;;4.20;1.87;;;;;;;11.91;100.00;96101.63;4988410;28;20228;-81
2023/05/07 04:11:20;;;;;;;4.43;1.73;;;;;;;11.94;100.00;96095.75;4990006;28;20235;-81
2023/05/07 04:13:47;;;;;;;3.57;1.80;;;;;;;11.95;100.00;96105.50;4987234;28;20196;-81
2023/05/07 04:16:16;;;;;;;2.70;2.10;;;;;;;11.87;100.00;96114.03;4985808;28;20228;-81
2023/05/07 04:18:43;;;;;;;5.93;1.80;;;;;;;11.71;100.00;96114.78;4985933;28;20237;-81
2023/05/07 04:21:16;;;;;;;6.73;1.77;;;;;;;11.71;100.00;96121.03;4988889;28;20306;-81
2023/05/07 04:23:44;;;;;;;1.97;1.60;;;;;;;11.79;100.00;96121.72;4988260;28;20212;-81
2023/05/07 04:26:12;;;;;;;2.73;1.67;;;;;;;11.83;100.00;96118.28;4988194;28;20214;-81
2023/05/07 04:28:44;;;;;;;2.13;1.83;;;;;;;11.88;100.00;96122.97;4984787;28;20254;-81
2023/05/07 04:31:11;;;;;;;6.73;1.80;;;;;;;11.93;100.00;96118.44;4987238;28;20204;-82
2023/05/07 04:33:39;;;;;;;4.20;1.93;;;;;;;11.89;100.00;96120.03;4985211;28;20200;-82
2023/05/07 04:36:10;;;;;;;5.33;2.23;;;;;;;11.83;100.00;96115.56;4985303;28;20227;-82
2023/05/07 04:38:44;;;;;;;3.43;1.70;;;;;;;11.82;100.00;96115.84;4988915;28;20217;-82
2023/05/07 04:41:14;;;;;;;6.17;1.80;;;;;;;11.89;100.00;96124.63;4986802;28;20286;-82
2023/05/07 04:43:42;;;;;;;3.50;2.00;;;;;;;11.96;100.00;96126.09;4997380;28;20251;-82
2023/05/07 04:46:12;;;;;;;4.03;2.00;;;;;;;12.02;100.00;96127.81;4985034;28;20209;-82
2023/05/07 04:48:39;;;;;;;2.50;1.90;;;;;;;11.96;100.00;96117.97;5004471;28;20271;-82
2023/05/07 04:51:07;;;;;;;4.50;2.17;;;;;;;11.90;100.00;96129.78;4980876;28;20235;-81
2023/05/07 04:53:34;;;;;;;4.53;2.20;;;;;;;11.87;100.00;96138.38;4990385;28;20196;-82
2023/05/07 04:56:01;;;;;;;2.87;1.90;;;;;;;11.89;100.00;96128.13;4987401;28;20259;-82
2023/05/07 04:58:35;;;;;;;3.77;1.90;;;;;;;11.94;100.00;96130.09;4984012;28;20210;-82
2023/05/07 05:01:02;;;;;;;5.37;1.80;;;;;;;11.91;100.00;96141.44;4991701;28;20204;-81
2023/05/07 05:03:31;;;;;;;4.37;2.20;;;;;;;11.87;100.00;96137.56;4984223;28;20203;-82
2023/05/07 05:05:59;;;;;;;3.17;1.77;;;;;;;11.92;100.00;96143.88;4989040;28;20243;-82
2023/05/07 05:08:28;;;;;;;3.60;1.93;;;;;;;12.05;100.00;96140.88;4992124;28;20314;-82
2023/05/07 05:10:57;;;;;;;3.37;1.53;;;;;;;12.18;100.00;96141.59;4993215;28;20219;-82
2023/05/07 05:13:25;;;;;;;4.70;1.90;;;;;;;12.26;100.00;96150.13;4993759;28;20211;-82
2023/05/07 05:15:52;;;;;;;3.03;1.80;;;;;;;12.37;100.00;96159.25;4989800;28;20212;-82
2023/05/07 05:18:19;;;;;;;1.67;1.50;;;;;;;12.39;100.00;96160.66;4988140;28;20247;-82
2023/05/07 05:20:47;;;;;;;2.33;2.03;;;;;;;12.43;100.00;96160.97;4982709;28;20203;-82
2023/05/07 05:23:14;;;;;;;2.87;2.03;;;;;;;12.49;100.00;96160.00;4989836;28;20208;-82
2023/05/07 05:25:41;;;;;;;3.43;1.83;;;;;;;12.57;100.00;96156.06;4988594;28;20231;-82
2023/05/07 05:28:11;;;;;;;5.37;2.17;;;;;;;12.54;100.00;96157.38;4990416;28;20219;-82
2023/05/07 05:30:38;;;;;;;4.63;2.33;;;;;;;12.59;100.00;96164.75;4990425;28;20207;-82
2023/05/07 05:33:06;;;;;;;3.43;2.00;;;;;;;12.58;100.00;96160.41;4989873;28;20208;-82
2023/05/07 05:35:35;;;;;;;3.93;2.10;;;;;;;12.59;100.00;96170.97;5003824;28;20200;-82
2023/05/07 05:38:07;;;;;;;2.97;2.17;;;;;;;12.63;100.00;96165.91;4989625;28;20204;-82
2023/05/07 05:40:34;;;;;;;2.40;2.20;;;;;;;12.67;100.00;96162.47;4989247;28;20208;-82
2023/05/07 05:43:02;;;;;;;4.77;2.20;;;;;;;12.67;100.00;96157.03;4988366;28;20356;-82
2023/05/07 05:45:29;;;;;;;2.53;2.10;;;;;;;12.68;100.00;96150.53;4976342;28;20228;-82
2023/05/07 05:47:57;;;;;;;6.43;2.20;;;;;;;12.70;100.00;96161.94;4992588;28;20197;-82
2023/05/07 05:50:24;;;;;;;5.07;2.27;;;;;;;12.66;100.00;96152.69;4988743;28;20204;-82
2023/05/07 05:52:52;;;;;;;5.73;2.30;;;;;;;12.69;100.00;96157.59;4990936;28;20203;-82
2023/05/07 05:55:22;;;;;;;3.17;2.23;;;;;;;12.73;100.00;96145.19;4984470;28;20240;-82
2023/05/07 05:57:49;;;;;;;6.23;2.30;;;;;;;12.74;100.00;96141.44;4987364;28;20209;-82
2023/05/07 06:00:17;;;;;;;2.53;2.30;;;;;;;12.76;100.00;96147.41;5004564;28;20299;-82
2023/05/07 06:02:47;;;;;;;5.30;2.30;;;;;;;12.79;100.00;96148.81;4990137;28;20255;-82
2023/05/07 06:05:20;;;;;;;3.30;2.80;;;;;;;12.75;100.00;96143.06;5002942;28;20243;-82
2023/05/07 06:07:50;;;;;;;4.67;3.10;;;;;;;12.76;100.00;96144.69;4990444;28;20200;-82
2023/05/07 06:10:18;;;;;;;3.83;2.70;;;;;;;12.87;100.00;96156.50;4990596;28;20208;-81
2023/05/07 06:12:46;;;;;;;3.97;2.73;;;;;;;13.02;100.00;96169.44;4991323;28;20204;-82
2023/05/07 06:15:16;;;;;;;4.60;2.33;;;;;;;13.11;100.00;96174.19;4989863;28;20212;-81
2023/05/07 06:17:44;;;;;;;5.87;2.30;;;;;;;13.12;100.00;96175.00;4990682;28;20199;-81
2023/05/07 06:20:12;;;;;;;4.83;2.43;;;;;;;13.14;100.00;96176.44;4987854;28;20205;-82
2023/05/07 06:22:40;;;;;;;4.33;2.30;;;;;;;13.15;100.00;96185.41;4990774;28;20196;-82
2023/05/07 06:25:10;;;;;;;5.17;2.77;;;;;;;13.15;100.00;96186.22;4986344;28;20228;-82
2023/05/07 06:27:39;;;;;;;5.40;2.70;;;;;;;13.22;100.00;96202.28;4988374;28;20311;-82
2023/05/07 06:30:09;;;;;;;7.20;3.87;;;;;;;13.21;100.00;96197.94;4989527;28;20188;-82
2023/05/07 06:32:37;;;;;;;5.07;3.77;;;;;;;13.28;100.00;96201.28;4987768;28;20204;-82
2023/05/07 06:35:05;;;;;;;6.53;4.23;;;;;;;13.36;100.00;96200.84;4988748;28;20211;-82
2023/05/07 06:37:34;;;;;;;5.60;3.83;;;;;;;13.33;100.00;96187.00;4982456;28;20209;-81
2023/05/07 06:40:05;;;;;;;8.97;4.40;;;;;;;13.45;100.00;96198.53;4988356;28;20208;-81
2023/05/07 06:42:35;;;;;;;5.40;3.87;;;;;;;13.53;100.00;96208.94;5000082;28;20255;-80
2023/05/07 06:45:20;;;;;;;4.13;3.03;;;;;;;13.68;100.00;96203.72;5005746;28;20227;-81
2023/05/07 06:47:47;;;;;;;6.90;3.20;;;;;;;13.78;100.00;96205.72;4991275;28;20207;-81
2023/05/07 06:50:16;;;;;;;3.33;2.70;;;;;;;13.86;100.00;96194.44;4983514;28;20267;-81
2023/05/07 06:52:44;;;;;;;2.97;2.60;;;;;;;13.91;100.00;96195.28;4984281;28;20204;-82
2023/05/07 06:55:12;;;;;;;3.57;2.80;;;;;;;13.98;100.00;96197.81;4980684;28;20212;-82
2023/05/07 06:57:40;;;;;;;3.83;2.60;;;;;;;14.06;100.00;96208.19;4987854;28;20300;-81
2023/05/07 07:00:08;;;;;;;6.90;3.13;;;;;;;14.14;100.00;96207.75;4983891;28;20199;-82
2023/05/07 07:02:44;;;;;;;7.67;2.70;;;;;;;14.17;100.00;96215.38;4987506;28;20200;-82
2023/05/07 07:05:13;;;;;;;4.17;2.40;;;;;;;14.25;100.00;96219.53;4985573;28;20247;-81
2023/05/07 07:07:40;;;;;;;3.70;2.60;;;;;;;14.26;100.00;96222.00;4993067;28;20217;-81
2023/05/07 07:10:09;;;;;;;5.97;3.00;;;;;;;14.29;100.00;96224.19;4990019;28;20298;-81
2023/05/07 07:12:36;;;;;;;4.43;2.70;;;;;;;14.41;100.00;96234.13;4986794;28;20235;-81
2023/05/07 07:15:04;;;;;;;6.57;2.80;;;;;;;14.39;100.00;96246.06;4987004;28;20204;-81
2023/05/07 07:17:31;;;;;;;5.03;2.77;;;;;;;14.55;100.00;96241.56;4991203;28;20290;-82
2023/05/07 07:20:00;;;;;;;5.67;2.30;;;;;;;14.79;100.00;96247.50;4989031;28;20389;-81
2023/05/07 07:22:27;;;;;;;2.37;1.87;;;;;;;14.96;100.00;96245.47;5003376;28;20210;-81
2023/05/07 07:24:55;;;;;;;3.37;1.93;;;;;;;15.25;100.00;96256.81;4982309;28;20220;-82
2023/05/07 07:27:23;;;;;;;2.90;1.83;;;;;;;15.38;100.00;96245.50;5001009;28;20203;-81
2023/05/07 07:29:50;;;;;;;4.73;2.00;;;;;;;15.33;100.00;96250.06;4993572;28;20222;-81
2023/05/07 07:32:17;;;;;;;3.90;1.80;;;;;;;15.36;100.00;96244.13;4991315;28;20203;-82
2023/05/07 07:34:44;;;;;;;2.57;2.00;;;;;;;15.38;100.00;96253.66;4993185;28;20195;-82
2023/05/07 07:37:14;;;;;;;4.17;2.10;;;;;;;15.59;100.00;96249.16;4990070;28;20203;-81
2023/05/07 07:39:42;;;;;;;4.70;2.03;;;;;;;15.76;100.00;96257.97;4993071;28;20290;-82
2023/05/07 07:42:10;;;;;;;5.17;2.23;;;;;;;15.73;100.00;96266.69;4994441;28;20204;-81
2023/05/07 07:44:39;;;;;;;3.67;2.07;;;;;;;15.76;100.00;96254.41;4990893;28;20205;-81
2023/05/07 07:47:08;;;;;;;4.17;1.80;;;;;;;15.74;100.00;96259.31;5004234;28;20203;-81
2023/05/07 07:49:36;;;;;;;2.20;2.00;;;;;;;15.74;100.00;96262.84;4993696;28;20208;-82
2023/05/07 07:52:06;;;;;;;4.30;1.93;;;;;;;15.77;100.00;96278.66;4992862;28;20203;-81
2023/05/07 07:54:37;;;;;;;5.90;2.07;;;;;;;15.77;100.00;96275.13;4991330;28;20235;-81
2023/05/07 07:57:07;;;;;;;4.33;1.80;;;;;;;15.79;100.00;96267.53;5006501;28;20195;-81
2023/05/07 07:59:34;;;;;;;6.57;2.00;;;;;;;15.79;100.00;96278.41;4991139;28;20229;-81
2023/05/07 08:02:02;;;;;;;4.70;1.97;;;;;;;15.77;100.00;96275.13;4988078;28;20208;-82
2023/05/07 08:04:32;;;;;;;3.50;2.10;;;;;;;15.78;100.00;96274.03;5001128;28;20208;-81
2023/05/07 08:07:02;;;;;;;4.53;2.13;;;;;;;16.00;100.00;96277.41;4989173;28;20234;-81
2023/05/07 08:09:32;;;;;;;3.80;2.10;;;;;;;16.45;100.00;96279.47;4975872;28;20236;-82
2023/05/07 08:12:03;;;;;;;4.03;2.33;;;;;;;16.60;100.00;96279.50;4994420;28;20199;-82
2023/05/07 08:14:33;;;;;;;3.70;2.10;;;;;;;16.86;100.00;96274.09;4989000;28;20223;-81
2023/05/07 08:17:01;;;;;;;2.73;1.93;;;;;;;17.16;100.00;96271.41;4998771;28;20206;-81
2023/05/07 08:19:28;;;;;;;3.70;2.10;;;;;;;17.54;100.00;96267.25;4992545;28;20230;-81
2023/05/07 08:21:56;;;;;;;3.87;1.90;;;;;;;17.57;100.00;96279.53;4992654;28;20234;-82
2023/05/07 08:24:24;;;;;;;3.13;1.87;;;;;;;17.21;100.00;96270.56;4989818;28;20208;-81
2023/05/07 08:26:52;;;;;;;4.03;2.33;;;;;;;17.04;100.00;96265.38;4994574;28;20451;-81
2023/05/07 08:29:21;;;;;;;2.27;2.00;;;;;;;17.21;100.00;96265.09;4993850;28;20210;-81
2023/05/07 08:31:48;;;;;;;4.30;2.40;;;;;;;17.57;100.00;96268.59;4992643;28;20201;-82
2023/05/07 08:34:15;;;;;;;4.67;2.20;;;;;;;17.91;100.00;96261.44;4981137;28;20255;-82
2023/05/07 08:36:46;;;;;;;3.53;1.83;;;;;;;18.22;100.00;96264.84;4992262;28;20283;-82
2023/05/07 08:39:16;;;;;;;5.57;2.47;;;;;;;18.48;100.00;96263.63;4993426;28;20231;-82
2023/05/07 08:41:46;;;;;;;2.23;1.90;;;;;;;18.59;100.00;96253.47;4992089;28;20238;-82
2023/05/07 08:44:15;;;;;;;3.13;2.30;;;;;;;18.79;100.00;96245.16;4996814;28;20223;-82
2023/05/07 08:46:47;;;;;;;4.25;2.08;;;;;;;18.92;100.00;96251.06;4991486;28;20318;-82
2023/05/07 08:49:18;;;;;;;3.38;1.88;;;;;;;19.00;100.00;96239.50;4989022;28;20200;-82
2023/05/07 08:51:45;;;;;;;5.72;2.30;;;;;;;18.83;100.00;96248.94;4990658;28;20204;-82
2023/05/07 08:54:12;;;;;;;4.15;2.13;;;;;;;18.81;100.00;96245.66;4991377;28;20274;-82
2023/05/07 08:56:40;;;;;;;3.15;2.08;;;;;;;18.87;100.00;96244.53;4993001;28;20205;-82
2023/05/07 08:59:07;;;;;;;3.85;2.30;;;;;;;18.92;99.35;96240.94;5001312;28;20208;-82
2023/05/07 09:01:35;;;;;;;3.25;1.95;;;;;;;19.00;99.55;96236.78;4992481;28;20204;-82
2023/05/07 09:04:05;;;;;;;3.13;1.90;;;;;;;18.96;98.61;96230.25;4992318;28;20218;-82
2023/05/07 09:06:33;;;;;;;2.92;1.90;;;;;;;19.01;96.53;96224.72;4995947;28;20239;-82
2023/05/07 09:09:02;;;;;;;3.88;2.10;;;;;;;18.87;96.50;96228.13;4994291;28;20231;-82
2023/05/07 09:11:31;;;;;;;4.47;2.17;;;;;;;19.03;97.17;96225.25;4999919;28;20203;-82
2023/05/07 09:14:01;;;;;;;3.55;1.90;;;;;;;19.44;94.56;96218.28;4988472;28;20290;-82
2023/05/07 09:16:30;;;;;;;2.53;2.25;;;;;;;19.73;93.56;96212.81;4995739;28;20206;-82
2023/05/07 09:19:00;;;;;;;2.90;1.90;;;;;;;19.94;91.72;96213.38;4991417;28;20206;-82
2023/05/07 09:21:30;;;;;;;2.58;1.90;;;;;;;20.14;90.48;96202.16;4992935;28;20203;-82
2023/05/07 09:23:59;;;;;;;4.18;1.90;;;;;;;20.27;88.54;96190.47;5003961;28;20200;-82
2023/05/07 09:26:36;;;;;;;3.55;1.90;;;;;;;20.52;89.52;96189.31;4990364;28;20226;-82
2023/05/07 09:29:04;;;;;;;2.25;1.90;;;;;;;20.80;88.02;96195.75;4991520;28;20218;-82
2023/05/07 09:31:32;;;;;;;4.28;1.90;;;;;;;20.91;82.72;96194.47;4991690;28;20207;-82
2023/05/07 09:34:00;;;;;;;2.60;1.90;;;;;;;20.88;83.06;96183.25;5009068;28;20258;-82
2023/05/07 09:36:32;;;;;;;2.15;1.95;;;;;;;20.89;82.53;96176.66;4992097;28;20196;-82
2023/05/07 09:39:01;;;;;;;2.35;1.80;;;;;;;20.96;84.38;96166.94;4992686;28;20318;-82
2023/05/07 09:41:32;;;;;;;3.28;2.08;;;;;;;21.08;85.53;96167.28;4993066;28;20196;-82
2023/05/07 09:44:19;;;;;;;2.63;1.92;;;;;;;21.31;84.16;96172.94;4991642;28;20207;-82
2023/05/07 09:46:55;;;;;;;2.13;1.85;;;;;;;21.48;82.99;96156.69;4992062;28;20290;-82
2023/05/07 09:49:31;;;;;;;2.47;2.13;;;;;;;21.47;83.67;96152.31;5008153;28;20206;-83
2023/05/07 09:52:08;;;;;;;3.40;1.92;;;;;;;21.71;80.68;96152.91;4980639;28;20203;-82
2023/05/07 09:54:38;;;;;;;2.30;2.10;;;;;;;21.87;82.51;96150.66;4998993;28;20199;-82
2023/05/07 09:57:08;;;;;;;2.28;1.95;;;;;;;21.88;78.41;96146.81;4996731;28;20204;-82
2023/05/07 09:59:37;;;;;;;2.42;2.00;;;;;;;21.76;78.10;96146.53;4993684;28;20263;-82
2023/05/07 10:02:11;;;;;;;3.17;1.90;;;;;;;21.68;80.83;96139.81;5013353;28;20210;-83
2023/05/07 10:04:47;;;;;;;6.22;2.25;;;;;;;21.77;81.95;96139.91;4991652;28;20210;-82
2023/05/07 10:07:18;;;;;;;3.47;1.90;;;;;;;21.77;82.48;96140.72;4992684;28;20290;-82
2023/05/07 10:09:46;;;;;;;2.58;2.00;;;;;;;21.76;80.64;96138.28;4995933;28;20235;-82
2023/05/07 10:12:24;;;;;;;2.83;2.03;;;;;;;21.69;83.78;96138.66;4996012;28;20199;-83
2023/05/07 10:14:53;;;;;;;2.10;1.90;;;;;;;21.47;88.05;96135.81;4993242;28;20207;-82
2023/05/07 10:17:21;;;;;;;6.40;4.43;;;;;;;21.60;90.65;96128.72;5010773;28;20203;-83
2023/05/07 10:19:52;;;;;;;2.40;2.20;;;;;;;21.97;88.37;96120.25;5003271;28;20254;-82
2023/05/07 10:22:23;;;;;;;2.88;2.42;;;;;;;21.93;93.24;96126.66;4989879;28;20218;-83
2023/05/07 10:24:54;;;;;;;3.47;2.63;;;;;;;21.81;92.26;96119.72;4995050;28;20208;-82
2023/05/07 10:27:24;;;;;;;4.32;2.58;;;;;;;21.74;92.50;96124.84;4992896;28;20227;-82
2023/05/07 10:30:06;;;;;;;4.05;2.47;;;;;;;21.63;93.31;96117.91;4994380;28;20206;-83
2023/05/07 10:32:41;;;;;;;2.88;2.30;;;;;;;21.67;95.20;96118.94;4985473;28;20207;-83
2023/05/07 10:35:17;;;;;;;3.08;2.10;;;;;;;21.60;93.25;96110.31;5002476;28;20199;-82
2023/05/07 10:37:47;;;;;;;3.45;2.40;;;;;;;21.48;94.34;96107.25;4994315;28;20230;-83
2023/05/07 10:40:14;;;;;;;3.20;2.38;;;;;;;21.37;93.84;96108.53;4982575;28;20407;-83
2023/05/07 10:42:55;;;;;;;3.53;2.42;;;;;;;21.48;94.84;96105.31;4990801;28;20196;-83
2023/05/07 10:45:25;;;;;;;3.38;2.00;;;;;;;21.55;92.29;96101.31;4984174;28;20200;-83
2023/05/07 10:48:11;;;;;;;4.45;2.10;;;;;;;21.58;91.13;96096.06;4992329;28;20208;-83
2023/05/07 10:50:39;;;;;;;2.80;2.50;;;;;;;21.57;91.33;96094.41;4991255;28;20222;-84
2023/05/07 10:53:32;;;;;;;3.58;2.20;;;;;;;21.52;90.29;96100.81;4993352;28;20204;-83
2023/05/07 10:56:33;;;;;;;5.47;2.20;;;;;;;21.58;92.79;96098.78;4971672;28;20211;-83
2023/05/07 10:59:35;;;;;;;3.47;2.17;;;;;;;21.65;91.05;96090.94;4945492;28;20223;-83
2023/05/07 11:02:18;;;;;;;4.47;1.92;;;;;;;21.70;89.17;96085.34;4989512;28;20199;-83
2023/05/07 11:05:21;;;;;;;5.57;2.30;;;;;;;21.66;88.87;96098.06;4992831;28;20207;-82
2023/05/07 11:07:57;;;;;;;3.50;2.30;;;;;;;21.57;89.02;96093.59;4989141;28;20221;-82
2023/05/07 11:10:52;;;;;;;2.78;2.08;;;;;;;21.62;90.12;96088.00;4996882;28;20211;-83
2023/05/07 11:13:45;;;;;;;6.28;2.25;;;;;;;21.77;89.35;96087.69;4984340;28;20208;-83
2023/05/07 11:16:22;;;;;;;3.83;2.10;;;;;;;21.77;85.88;96073.94;4984329;28;20200;-83
2023/05/07 11:18:56;;;;;;;2.88;2.28;;;;;;;21.83;86.21;96078.22;4992605;28;20213;-83
2023/05/07 11:21:43;;;;;;;2.90;1.90;;;;;;;22.01;85.51;96070.97;4992698;28;20223;-83
2023/05/07 11:24:41;;;;;;;2.90;2.00;;;;;;;22.18;81.85;96069.19;4977458;28;20276;-83
2023/05/07 11:27:11;;;;;;;2.65;1.85;;;;;;;22.08;83.11;96061.16;4993600;28;20227;-83
2023/05/07 11:29:40;;;;;;;3.50;2.30;;;;;;;22.16;84.58;96063.19;4997519;28;20303;-83
2023/05/07 11:32:13;;;;;;;2.63;2.03;;;;;;;22.55;84.38;96058.94;4993447;28;20207;-84
2023/05/07 11:34:48;;;;;;;1.83;1.70;;;;;;;22.95;87.03;96054.38;4994843;28;20203;-84
2023/05/07 11:37:18;;;;;;;2.10;1.90;;;;;;;22.90;83.51;96063.56;4991348;28;20207;-85
2023/05/07 11:40:05;;;;;;;4.93;2.22;;;;;;;22.67;85.99;96048.16;4991917;28;20227;-87